TFM - Tactical Decision Aid
ID: Runway Winds: CIG/VIS Threshold:

KTPA - Tampa Intl Arpt, FL, US

Updated at: 1316 UTC 15 Jul 2020
Latest TAF at: 1130 UTC 15 Jul 2020

TAF Board

Time1253Z 15/14Z 15/15Z 15/16Z 15/17Z 15/18Z 15/19Z 15/20Z 15/21Z 15/22Z 15/23Z 16/00Z 16/01Z 16/02Z>>
Type OBS PRVL PRVL PRVL PRVL PRVL PRVL PRVL PRVL PRVL PRVL PRVL PRVL PRVL
VIS 10 >6 >6 >6 >6 >6 >6 >6 >6 >6 >6 >6 >6 >6
CIG -- -- 250 250 250 250 250 250 250 250 250 250 250 250
Cover SCT SCT BKN BKN BKN BKN BKN BKN BKN BKN BKN BKN BKN BKN
FltCat VFR VFR VFR VFR VFR VFR VFR VFR VFR VFR VFR VFR VFR VFR
WX -- -- VCTS VCTS VCTS VCTS VCTS VCTS -- -- -- -- -- --
WDir VRB VRB 260 260 260 260 260 260 290 290 290 290 290 VRB
WSpd 0 3 7 7 7 7 7 7 7 7 7 7 7 3
WGst -- -- -- -- -- -- -- -- -- -- -- -- -- --

TDA Impact Legend

  None Marginal Slight Moderate High
Visibility (sm) >5 3≤X≤5 1≤X<3 0.5≤X<1 <0.5
Ceiling (100 ft) >30 10≤X≤30 4≤X<10 2≤X<4 <2
Wind Speed (kt) <15 15≤X<25 25≤X<30 ≥30
Wind Gust (kt) <15 15≤X<25 25≤X<35 ≥35
Weather No Wx Reported VCTS -TS,-FZRA TS,FZRA +TS,+FZRA
TAF
KTPA 151130Z 1512/1618 VRB03KT P6SM SCT025 SCT250
  FM151500 26007KT P6SM VCTS SCT030CB SCT100 BKN250
  FM152100 29007KT P6SM SCT035 SCT130 BKN250
  FM160200 VRB03KT P6SM FEW030 BKN250
  FM161500 08006KT P6SM VCTS SCT030CB SCT100 BKN250


METAR
KTPA 151253Z 00000KT 10SM SCT022 SCT280 29/24 A3007 RMK AO2 SLP183 T02940239
KTPA 151153Z 00000KT 10SM FEW020 SCT280 28/24 A3005 RMK AO2 SLP176 60018 70018 T02830239 10294 20261 53010
KTPA 151053Z 00000KT 10SM FEW021 FEW300 27/24 A3004 RMK AO2 SLP173 T02720239
KTPA 150953Z 00000KT 10SM FEW023 28/24 A3003 RMK AO2 SLP168 T02780244

Radar Display
Forecast Discussion